Time;durP1;ratioP1;P1;durP2;ratioP2;P2;SDS_P1;SDS_P2;PMS_P1;PMS_P2;Temp;Humidity;BMP_temperature;BMP_pressure;BME280_temperature;BME280_humidity;BME280_pressure;Samples;Min_cycle;Max_cycle;Signal;HPM_P1;HPM_P2
2024/02/11 00:01:24;;;;;;;16.50;10.70;;;;;;;8.50;76.40;97542.97;108787;1263;71478;-25
2024/02/11 00:03:54;;;;;;;17.60;12.20;;;;;;;8.22;76.88;97542.15;108678;1263;60255;-25
2024/02/11 00:06:23;;;;;;;19.90;13.20;;;;;;;8.00;77.43;97542.27;108797;1263;60367;-25
2024/02/11 00:08:51;;;;;;;13.40;9.40;;;;;;;7.88;78.52;97545.30;108690;1263;73144;-25
2024/02/11 00:11:19;;;;;;;15.00;9.90;;;;;;;8.47;76.97;97545.52;108807;1263;73082;-25
2024/02/11 00:13:47;;;;;;;17.70;12.20;;;;;;;8.74;75.89;97542.48;108704;1266;70417;-25
2024/02/11 00:16:15;;;;;;;16.80;12.30;;;;;;;8.71;75.42;97542.61;108667;1265;60077;-25
2024/02/11 00:18:42;;;;;;;18.80;12.90;;;;;;;8.48;76.02;97543.35;108686;1264;59965;-25
2024/02/11 00:21:11;;;;;;;19.50;12.90;;;;;;;8.24;76.51;97540.75;108683;1264;71235;-25
2024/02/11 00:23:39;;;;;;;16.40;11.90;;;;;;;7.92;77.44;97541.88;108730;1263;74345;-25
2024/02/11 00:26:07;;;;;;;12.10;9.40;;;;;;;8.14;77.86;97543.21;109024;1259;72699;-25
2024/02/11 00:28:34;;;;;;;12.70;9.40;;;;;;;8.60;76.35;97540.11;109091;1257;60167;-25
2024/02/11 00:31:03;;;;;;;14.00;10.00;;;;;;;8.62;75.70;97542.80;109143;1256;60009;-25
2024/02/11 00:33:32;;;;;;;12.60;9.70;;;;;;;8.38;76.17;97544.23;109110;1257;73052;-25
2024/02/11 00:36:01;;;;;;;15.80;10.80;;;;;;;8.06;77.07;97542.61;109103;1257;74347;-25
2024/02/11 00:38:30;;;;;;;15.50;11.50;;;;;;;7.86;77.60;97543.98;109088;1257;72664;-25
2024/02/11 00:40:58;;;;;;;13.10;8.90;;;;;;;7.75;78.64;97548.23;109060;1257;61856;-25
2024/02/11 00:43:26;;;;;;;9.90;8.20;;;;;;;8.26;77.21;97550.98;109092;1258;60011;-25
2024/02/11 00:45:54;;;;;;;12.70;9.60;;;;;;;8.44;76.47;97548.71;109095;1257;72988;-26
2024/02/11 00:48:23;;;;;;;13.20;10.00;;;;;;;8.36;76.12;97543.72;109069;1257;73232;-25
2024/02/11 00:50:51;;;;;;;13.20;10.60;;;;;;;8.18;76.53;97536.61;109121;1257;72795;-25
2024/02/11 00:53:19;;;;;;;15.70;12.60;;;;;;;7.91;77.21;97541.59;109086;1258;58788;-25
2024/02/11 00:55:47;;;;;;;13.00;8.80;;;;;;;7.79;78.40;97542.35;109057;1259;58760;-25
2024/02/11 00:58:15;;;;;;;12.20;9.10;;;;;;;8.37;76.98;97538.66;109155;1257;73047;-25
2024/02/11 01:00:45;;;;;;;13.20;9.70;;;;;;;8.62;75.69;97539.23;109047;1257;73052;-25
2024/02/11 01:03:16;;;;;;;16.50;10.50;;;;;;;8.52;75.74;97540.37;109045;1257;72622;-26
2024/02/11 01:05:43;;;;;;;14.70;10.70;;;;;;;8.14;76.58;97541.48;109071;1257;58795;-25
2024/02/11 01:08:11;;;;;;;16.40;11.10;;;;;;;7.82;77.60;97543.33;109089;1257;59122;-25
2024/02/11 01:10:39;;;;;;;11.40;7.70;;;;;;;7.57;78.70;97542.31;109103;1257;73097;-25
2024/02/11 01:13:07;;;;;;;10.40;8.00;;;;;;;7.99;78.63;97545.20;109088;1257;74317;-26
2024/02/11 01:15:35;;;;;;;11.50;8.70;;;;;;;8.46;76.91;97544.15;109079;1262;71486;-25
2024/02/11 01:18:05;;;;;;;11.70;9.40;;;;;;;8.48;76.11;97536.54;109083;1257;58841;-25
2024/02/11 01:20:33;;;;;;;14.00;9.20;;;;;;;8.37;76.07;97539.99;109096;1257;59994;-25
2024/02/11 01:23:00;;;;;;;14.40;10.70;;;;;;;8.12;76.71;97534.27;109085;1257;71822;-25
2024/02/11 01:25:28;;;;;;;14.30;11.50;;;;;;;7.80;77.89;97530.86;109107;1257;72759;-26
2024/02/11 01:27:56;;;;;;;9.70;7.60;;;;;;;7.60;78.70;97527.52;109058;1257;72741;-25
2024/02/11 01:30:24;;;;;;;11.80;8.50;;;;;;;8.11;78.18;97531.90;109044;1258;60174;-25
2024/02/11 01:32:54;;;;;;;14.10;9.10;;;;;;;8.68;76.22;97530.69;109109;1257;59046;-25
2024/02/11 01:35:21;;;;;;;12.30;9.50;;;;;;;8.63;75.75;97528.70;109173;1256;71867;-25
2024/02/11 01:37:49;;;;;;;17.70;11.70;;;;;;;8.33;76.41;97528.64;109137;1257;73326;-25
2024/02/11 01:40:19;;;;;;;14.50;11.00;;;;;;;8.10;77.16;97517.50;109101;1257;72743;-25
2024/02/11 01:42:47;;;;;;;18.40;11.80;;;;;;;7.87;77.71;97519.70;109107;1257;59277;-25
2024/02/11 01:45:17;;;;;;;19.90;11.60;;;;;;;7.60;78.71;97522.05;109087;1257;59285;-25
2024/02/11 01:47:45;;;;;;;21.90;12.60;;;;;;;8.05;78.46;97522.83;109124;1257;73084;-26
2024/02/11 01:50:17;;;;;;;16.80;11.10;;;;;;;8.50;76.69;97522.65;109140;1257;74390;-25
2024/02/11 01:52:47;;;;;;;14.80;10.70;;;;;;;8.55;76.19;97522.92;108904;1263;72602;-26
2024/02/11 01:55:18;;;;;;;15.70;10.00;;;;;;;8.44;75.96;97535.70;108946;1257;58934;-25
2024/02/11 01:57:47;;;;;;;16.80;11.30;;;;;;;8.16;76.80;97539.63;108945;1259;59979;-25
2024/02/11 02:00:15;;;;;;;17.50;12.20;;;;;;;7.90;77.62;97537.84;109023;1259;73064;-25
2024/02/11 02:02:44;;;;;;;10.80;7.30;;;;;;;7.83;78.19;97535.56;108968;1259;74481;-25
2024/02/11 02:05:12;;;;;;;13.40;8.20;;;;;;;8.51;77.28;97535.18;108920;1260;72644;-25
2024/02/11 02:07:40;;;;;;;12.20;9.00;;;;;;;8.97;75.17;97538.59;108980;1259;59304;-25
2024/02/11 02:10:08;;;;;;;11.90;9.00;;;;;;;8.95;74.71;97540.16;108962;1259;60110;-26
2024/02/11 02:12:36;;;;;;;12.40;9.40;;;;;;;8.69;74.89;97536.44;108963;1259;70852;-25
2024/02/11 02:15:07;;;;;;;13.50;9.30;;;;;;;8.35;76.14;97537.25;108993;1259;73083;-25
2024/02/11 02:17:37;;;;;;;13.40;11.00;;;;;;;7.99;77.30;97536.35;108887;1259;72692;-26
2024/02/11 02:20:07;;;;;;;11.40;8.20;;;;;;;8.02;78.22;97538.80;108950;1259;61502;-25
2024/02/11 02:22:35;;;;;;;12.10;8.70;;;;;;;8.55;76.60;97534.04;108972;1259;58742;-25
2024/02/11 02:25:04;;;;;;;12.40;8.70;;;;;;;8.72;75.59;97531.81;109002;1259;73031;-25
2024/02/11 02:27:31;;;;;;;13.50;10.60;;;;;;;8.56;75.80;97537.74;108926;1259;74398;-25
2024/02/11 02:29:59;;;;;;;14.70;10.40;;;;;;;8.29;76.38;97542.00;109003;1259;72653;-26
2024/02/11 02:32:27;;;;;;;14.80;11.40;;;;;;;8.09;77.14;97538.30;108994;1259;58799;-25
2024/02/11 02:34:55;;;;;;;10.50;6.40;;;;;;;7.89;77.84;97537.11;108918;1259;60063;-25
2024/02/11 02:37:22;;;;;;;11.90;8.70;;;;;;;8.37;77.48;97537.95;109005;1259;71857;-25
2024/02/11 02:39:50;;;;;;;13.40;8.70;;;;;;;8.93;75.63;97524.95;108984;1259;74108;-25
2024/02/11 02:42:20;;;;;;;12.20;8.30;;;;;;;8.98;74.95;97529.64;109014;1259;72649;-25
2024/02/11 02:44:47;;;;;;;11.60;8.90;;;;;;;8.76;75.07;97528.70;109013;1259;60051;-26
2024/02/11 02:47:15;;;;;;;14.10;10.40;;;;;;;8.46;75.74;97534.45;108994;1262;60036;-25
2024/02/11 02:49:45;;;;;;;14.90;10.70;;;;;;;8.20;76.37;97531.08;108996;1259;73208;-25
2024/02/11 02:52:14;;;;;;;12.70;8.40;;;;;;;7.95;77.61;97527.56;108947;1259;74347;-25
2024/02/11 02:54:43;;;;;;;11.10;8.10;;;;;;;8.37;77.48;97523.06;108981;1258;71412;-25
2024/02/11 02:57:12;;;;;;;12.10;8.90;;;;;;;8.87;75.64;97526.73;108939;1260;60049;-26
2024/02/11 02:59:40;;;;;;;12.20;9.30;;;;;;;8.95;74.86;97524.42;108881;1266;58737;-26
2024/02/11 03:02:08;;;;;;;12.10;9.20;;;;;;;8.79;75.09;97527.55;109001;1259;73045;-25
2024/02/11 03:04:37;;;;;;;14.30;10.60;;;;;;;8.59;75.61;97523.80;108934;1259;74362;-25
2024/02/11 03:07:06;;;;;;;16.00;10.60;;;;;;;8.37;75.87;97527.88;108846;1259;73277;-25
2024/02/11 03:09:34;;;;;;;10.80;7.80;;;;;;;8.05;77.34;97527.17;108946;1261;60452;-25
2024/02/11 03:12:02;;;;;;;12.00;8.20;;;;;;;8.45;77.27;97529.70;108932;1259;58807;-25
2024/02/11 03:14:31;;;;;;;14.10;10.10;;;;;;;8.91;75.55;97527.77;108981;1259;73891;-26
2024/02/11 03:16:59;;;;;;;12.70;9.50;;;;;;;8.93;74.91;97525.67;108887;1259;74314;-25
2024/02/11 03:19:27;;;;;;;15.10;9.70;;;;;;;8.76;75.09;97527.60;108916;1259;72769;-25
2024/02/11 03:21:54;;;;;;;14.70;9.80;;;;;;;8.54;75.87;97528.42;108944;1259;58883;-25
2024/02/11 03:24:22;;;;;;;16.00;12.30;;;;;;;8.27;76.72;97527.48;108999;1259;58817;-26
2024/02/11 03:26:50;;;;;;;12.90;8.60;;;;;;;8.02;77.78;97522.05;108920;1259;72966;-25
2024/02/11 03:29:19;;;;;;;10.60;7.70;;;;;;;8.54;77.25;97524.89;108977;1259;74340;-25
2024/02/11 03:31:46;;;;;;;11.80;8.60;;;;;;;9.04;75.36;97519.71;108975;1259;71411;-25
2024/02/11 03:34:14;;;;;;;12.40;9.00;;;;;;;9.05;75.10;97519.96;108980;1261;60089;-25
2024/02/11 03:36:43;;;;;;;16.40;10.60;;;;;;;8.90;75.36;97523.15;108977;1259;60041;-27
2024/02/11 03:39:11;;;;;;;13.60;10.60;;;;;;;8.62;75.71;97524.87;108897;1259;73915;-26
2024/02/11 03:41:39;;;;;;;14.60;11.10;;;;;;;8.42;76.19;97521.55;108951;1259;74791;-26
2024/02/11 03:44:07;;;;;;;12.60;8.90;;;;;;;8.27;76.79;97518.70;108956;1259;71436;-25
2024/02/11 03:46:34;;;;;;;12.70;8.70;;;;;;;8.73;76.51;97514.36;108893;1259;60130;-25
2024/02/11 03:49:02;;;;;;;12.10;8.50;;;;;;;9.29;74.55;97519.52;108996;1264;60014;-25
2024/02/11 03:51:31;;;;;;;12.80;9.10;;;;;;;9.27;73.74;97521.23;109005;1259;73813;-26
2024/02/11 03:54:03;;;;;;;13.70;10.00;;;;;;;9.02;74.03;97525.11;109004;1259;74330;-25
2024/02/11 03:56:34;;;;;;;13.60;10.20;;;;;;;8.79;74.60;97528.89;108901;1259;71333;-26
2024/02/11 03:59:03;;;;;;;14.80;10.20;;;;;;;8.56;75.12;97527.83;108781;1259;60129;-25
2024/02/11 04:01:31;;;;;;;10.40;7.90;;;;;;;8.27;76.14;97526.96;108859;1259;60011;-26
2024/02/11 04:04:00;;;;;;;12.00;8.70;;;;;;;8.68;76.31;97522.18;109129;1261;72584;-26
2024/02/11 04:06:30;;;;;;;11.80;8.90;;;;;;;9.18;74.74;97526.27;109138;1256;74295;-26
2024/02/11 04:09:00;;;;;;;12.40;9.40;;;;;;;9.16;73.84;97525.82;109094;1259;72670;-25
2024/02/11 04:11:28;;;;;;;13.10;8.70;;;;;;;8.90;74.61;97525.08;109068;1256;58806;-25
2024/02/11 04:13:56;;;;;;;13.60;10.20;;;;;;;8.59;75.46;97525.48;109158;1261;60107;-25
2024/02/11 04:16:24;;;;;;;13.60;9.90;;;;;;;8.37;76.08;97519.63;109121;1256;73867;-26
2024/02/11 04:18:53;;;;;;;10.00;7.80;;;;;;;8.14;77.02;97521.27;109120;1256;74377;-25
2024/02/11 04:21:21;;;;;;;11.40;8.10;;;;;;;8.56;77.14;97520.55;109012;1263;71280;-25
2024/02/11 04:23:49;;;;;;;14.10;9.70;;;;;;;9.05;75.38;97509.45;109141;1256;58815;-26
2024/02/11 04:26:17;;;;;;;14.60;10.00;;;;;;;9.06;74.78;97508.27;109073;1259;58786;-25
2024/02/11 04:28:47;;;;;;;13.80;9.70;;;;;;;8.79;75.24;97514.58;109115;1256;74037;-26
2024/02/11 04:31:16;;;;;;;14.50;10.20;;;;;;;8.59;75.87;97513.78;109134;1256;73015;-25
2024/02/11 04:33:46;;;;;;;13.10;10.10;;;;;;;8.38;76.10;97506.55;109042;1256;72726;-25
2024/02/11 04:36:16;;;;;;;11.20;8.50;;;;;;;8.19;76.97;97504.73;108990;1256;60450;-25
2024/02/11 04:38:45;;;;;;;11.50;8.20;;;;;;;8.61;76.69;97510.22;109084;1259;59999;-25
2024/02/11 04:41:13;;;;;;;12.10;9.20;;;;;;;9.02;75.03;97508.09;108915;1256;72616;-25
2024/02/11 04:43:44;;;;;;;16.10;9.40;;;;;;;9.04;74.48;97506.89;109067;1256;74357;-26
2024/02/11 04:46:13;;;;;;;12.50;9.50;;;;;;;8.83;74.90;97509.00;109053;1257;70997;-25
2024/02/11 04:48:41;;;;;;;12.20;9.30;;;;;;;8.54;75.82;97514.35;109046;1257;58871;-25
2024/02/11 04:51:09;;;;;;;14.70;10.50;;;;;;;8.24;77.18;97514.81;109168;1256;58810;-25
2024/02/11 04:53:38;;;;;;;12.10;7.10;;;;;;;8.04;78.02;97510.48;109113;1256;72623;-25
2024/02/11 04:56:06;;;;;;;10.10;7.80;;;;;;;8.57;77.36;97507.16;109126;1256;74429;-26
2024/02/11 04:58:34;;;;;;;13.60;9.10;;;;;;;9.13;75.47;97506.05;108997;1257;71450;-25
2024/02/11 05:01:02;;;;;;;11.70;9.30;;;;;;;9.11;74.83;97505.63;108986;1257;60112;-26
2024/02/11 05:03:30;;;;;;;12.60;9.40;;;;;;;8.88;75.47;97503.98;109033;1258;58743;-25
2024/02/11 05:05:59;;;;;;;13.50;10.30;;;;;;;8.74;75.88;97505.83;109034;1257;73895;-25
2024/02/11 05:08:28;;;;;;;16.20;10.20;;;;;;;8.66;76.05;97505.24;109013;1257;73268;-26
2024/02/11 05:10:56;;;;;;;12.50;8.80;;;;;;;8.39;77.09;97499.84;109001;1257;72654;-25
2024/02/11 05:13:29;;;;;;;13.20;9.60;;;;;;;9.02;76.01;97503.77;109002;1259;60160;-25
2024/02/11 05:16:01;;;;;;;15.10;9.90;;;;;;;9.57;73.86;97507.83;108981;1262;58762;-25
2024/02/11 05:18:30;;;;;;;13.20;8.80;;;;;;;9.63;73.18;97509.99;108987;1257;73900;-25
2024/02/11 05:21:01;;;;;;;16.50;10.70;;;;;;;9.07;74.80;97507.81;109059;1257;74278;-26
2024/02/11 05:23:30;;;;;;;16.90;11.80;;;;;;;8.73;75.99;97508.73;108979;1257;72695;-25
2024/02/11 05:25:59;;;;;;;16.70;11.40;;;;;;;8.47;76.99;97509.14;109038;1257;58836;-25
2024/02/11 05:28:27;;;;;;;16.70;8.80;;;;;;;8.44;78.15;97508.90;109001;1257;59980;-25
2024/02/11 05:30:56;;;;;;;16.20;9.40;;;;;;;9.09;76.28;97510.88;109052;1257;73852;-25
2024/02/11 05:33:25;;;;;;;15.40;9.10;;;;;;;9.39;74.59;97510.73;108979;1257;73398;-25
2024/02/11 05:35:53;;;;;;;12.50;9.40;;;;;;;9.25;74.93;97510.02;109016;1257;71519;-25
2024/02/11 05:38:24;;;;;;;14.20;10.00;;;;;;;9.18;74.65;97511.41;109038;1257;60070;-25
2024/02/11 05:40:56;;;;;;;14.20;9.60;;;;;;;8.99;75.31;97513.12;108996;1257;60035;-25
2024/02/11 05:43:27;;;;;;;;;;;;;;;8.70;76.31;97513.71;108944;1257;73857;-25
2024/02/11 05:45:54;;;;;;;11.70;7.60;;;;;;;9.22;75.61;97510.62;108977;1257;73233;-26
2024/02/11 05:48:23;;;;;;;13.60;8.10;;;;;;;9.63;73.74;97515.69;109044;1257;71562;-26
2024/02/11 05:50:51;;;;;;;13.80;9.80;;;;;;;9.70;73.31;97514.57;109045;1258;59710;-25
2024/02/11 05:53:19;;;;;;;14.60;9.90;;;;;;;9.50;73.49;97520.14;109041;1257;58750;-25
2024/02/11 05:55:49;;;;;;;13.60;10.20;;;;;;;9.21;74.36;97521.16;109064;1257;73868;-25
2024/02/11 05:58:18;;;;;;;15.50;11.00;;;;;;;8.96;75.20;97523.56;108967;1256;74403;-25
2024/02/11 06:00:47;;;;;;;15.00;9.10;;;;;;;8.85;76.30;97527.40;109045;1257;71396;-26
2024/02/11 06:03:20;;;;;;;18.60;10.70;;;;;;;9.47;74.86;97530.32;109062;1257;58955;-25
2024/02/11 06:05:51;;;;;;;14.00;9.30;;;;;;;9.70;73.54;97531.38;109020;1257;58773;-25
2024/02/11 06:08:21;;;;;;;13.90;9.50;;;;;;;9.58;73.07;97528.20;109009;1257;75029;-25
2024/02/11 06:10:52;;;;;;;18.20;11.40;;;;;;;9.29;74.04;97528.66;108997;1257;73228;-25
2024/02/11 06:13:22;;;;;;;15.90;11.70;;;;;;;9.02;75.03;97532.85;108974;1257;72657;-25
2024/02/11 06:15:53;;;;;;;12.50;8.50;;;;;;;8.83;76.08;97530.09;108926;1260;60415;-25
2024/02/11 06:18:24;;;;;;;10.80;8.20;;;;;;;9.47;75.00;97531.49;108993;1257;60014;-25
2024/02/11 06:20:54;;;;;;;13.30;8.80;;;;;;;9.88;73.31;97535.27;108985;1257;72947;-25
2024/02/11 06:23:25;;;;;;;12.50;9.50;;;;;;;9.84;73.05;97539.95;109000;1257;73190;-25
2024/02/11 06:26:02;;;;;;;16.70;9.80;;;;;;;9.69;73.17;97546.52;108982;1257;72810;-25
2024/02/11 06:28:34;;;;;;;14.80;10.10;;;;;;;9.46;73.67;97544.67;108968;1263;58865;-25
2024/02/11 06:31:05;;;;;;;15.30;11.00;;;;;;;9.21;74.17;97543.81;109011;1257;60482;-25
2024/02/11 06:33:36;;;;;;;10.40;8.00;;;;;;;9.03;75.09;97547.16;108948;1257;73879;-24
2024/02/11 06:36:06;;;;;;;11.50;8.40;;;;;;;9.58;74.48;97546.38;108954;1257;74353;-25
2024/02/11 06:38:37;;;;;;;12.10;8.80;;;;;;;10.12;72.89;97546.84;108920;1257;71493;-24
2024/02/11 06:41:07;;;;;;;13.60;10.10;;;;;;;10.16;72.31;97542.39;108952;1261;58792;-25
2024/02/11 06:43:36;;;;;;;18.70;11.90;;;;;;;10.06;72.42;97542.23;109035;1257;58751;-25
2024/02/11 06:46:06;;;;;;;16.50;12.00;;;;;;;9.83;72.27;97543.34;108953;1257;74019;-24
2024/02/11 06:48:38;;;;;;;19.00;13.00;;;;;;;9.62;72.73;97538.07;108913;1257;74253;-25
2024/02/11 06:51:09;;;;;;;15.80;9.10;;;;;;;9.41;73.42;97533.04;108901;1257;72716;-25
2024/02/11 06:53:40;;;;;;;17.20;9.90;;;;;;;9.90;73.32;97537.95;108944;1257;59241;-25
2024/02/11 06:56:12;;;;;;;14.00;9.80;;;;;;;10.38;71.74;97545.77;108999;1257;58778;-25
2024/02/11 06:58:42;;;;;;;15.40;10.80;;;;;;;10.41;71.37;97548.90;108982;1257;73830;-25
2024/02/11 07:08:43;;;;;;;38.10;19.90;;;;;;;9.33;73.44;97536.27;102737;1292;600754;-23
2024/02/11 07:11:11;;;;;;;44.60;20.20;;;;;;;9.64;73.62;97535.89;104824;1267;61206;-24
2024/02/11 07:13:39;;;;;;;68.50;31.70;;;;;;;10.17;72.10;97532.64;104820;1269;61119;-24
2024/02/11 07:16:07;;;;;;;86.70;43.90;;;;;;;10.19;72.08;97540.58;105583;1257;72194;-24
2024/02/11 07:18:39;;;;;;;101.60;50.70;;;;;;;10.07;71.58;97536.04;105598;1258;74321;-25
2024/02/11 07:28:53;;;;;;;30.70;18.40;;;;;;;9.29;73.85;97539.40;102730;1292;600176;-24
2024/02/11 07:31:21;;;;;;;24.00;14.90;;;;;;;9.97;73.05;97553.55;104939;1270;61168;-25
2024/02/11 07:33:49;;;;;;;23.90;14.30;;;;;;;10.48;71.81;97564.67;104833;1266;61140;-25
2024/02/11 07:36:18;;;;;;;21.70;12.80;;;;;;;10.52;70.96;97568.55;104758;1266;71007;-25
2024/02/11 07:38:47;;;;;;;20.20;12.80;;;;;;;10.37;71.12;97567.52;104784;1266;74300;-26
2024/02/11 07:41:14;;;;;;;18.30;12.90;;;;;;;10.17;71.24;97562.62;104981;1267;72336;-26
2024/02/11 07:43:43;;;;;;;21.80;14.00;;;;;;;9.96;71.88;97565.84;105010;1269;180603;-26
2024/02/11 07:46:13;;;;;;;14.60;9.20;;;;;;;9.74;72.57;97565.79;105057;1265;61173;-26
2024/02/11 07:48:41;;;;;;;13.80;9.40;;;;;;;10.35;72.70;97570.97;104898;1268;72209;-26
2024/02/11 07:51:09;;;;;;;18.60;11.70;;;;;;;10.96;71.02;97574.56;104905;1262;73090;-26
2024/02/11 07:53:37;;;;;;;20.80;14.60;;;;;;;10.96;70.58;97571.77;105117;1264;71982;-26
2024/02/11 07:56:06;;;;;;;23.50;13.40;;;;;;;10.77;70.70;97567.98;105079;1264;61026;-26
2024/02/11 07:58:34;;;;;;;19.90;13.50;;;;;;;10.55;71.42;97570.81;104852;1263;61062;-26
2024/02/11 08:01:03;;;;;;;20.50;13.60;;;;;;;10.33;71.79;97567.23;105200;1265;74763;-25
2024/02/11 08:03:32;;;;;;;15.40;10.60;;;;;;;10.06;73.35;97567.95;104734;1270;77011;-25
2024/02/11 08:06:00;;;;;;;19.00;12.40;;;;;;;10.51;72.96;97573.86;104860;1268;73963;-25
2024/02/11 08:08:29;;;;;;;24.20;13.90;;;;;;;10.96;71.38;97574.92;104990;1265;61142;-25
2024/02/11 08:10:57;;;;;;;18.00;11.80;;;;;;;11.05;71.40;97576.55;105106;1264;61262;-25
2024/02/11 08:13:25;;;;;;;17.70;12.40;;;;;;;10.83;71.55;97571.17;104959;1264;72118;-25
2024/02/11 08:23:33;;;;;;;19.90;11.00;;;;;;;11.30;71.03;97566.57;102716;1291;598764;-24
2024/02/11 08:26:01;;;;;;;15.40;9.90;;;;;;;11.20;70.87;97560.85;104863;1267;61142;-24
2024/02/11 08:28:29;;;;;;;18.20;12.00;;;;;;;10.90;71.46;97560.95;104888;1267;61065;-24
2024/02/11 08:30:57;;;;;;;17.80;12.20;;;;;;;10.66;72.16;97557.73;104835;1267;70235;-23
2024/02/11 08:33:25;;;;;;;14.10;8.80;;;;;;;10.40;73.29;97561.13;104821;1271;72204;-26
2024/02/11 08:35:53;;;;;;;18.30;10.00;;;;;;;10.91;72.67;97564.53;105048;1267;72688;-26
2024/02/11 08:45:15;;;;;;;16.90;10.60;;;;;;;10.78;72.04;97568.05;102705;1294;600138;-24
2024/02/11 08:47:44;;;;;;;14.70;10.00;;;;;;;10.60;72.70;97561.70;104890;1265;61088;-24
2024/02/11 08:50:14;;;;;;;13.10;8.90;;;;;;;10.38;73.58;97563.19;104894;1267;61702;-24
2024/02/11 08:52:43;;;;;;;13.90;9.50;;;;;;;10.89;72.40;97567.80;104878;1267;72192;-26
2024/02/11 08:55:11;;;;;;;12.50;9.20;;;;;;;11.11;71.56;97570.67;104811;1267;73034;-26
2024/02/11 08:57:39;;;;;;;15.90;10.10;;;;;;;11.09;71.40;97575.11;104751;1267;71422;-24
2024/02/11 09:00:14;;;;;;;14.60;10.00;;;;;;;10.94;71.92;97580.49;105018;1264;61125;-24
2024/02/11 09:02:42;;;;;;;14.60;9.80;;;;;;;10.52;73.08;97576.69;104852;1265;61147;-24
2024/02/11 09:05:10;;;;;;;17.90;8.50;;;;;;;10.26;74.20;97571.66;105070;1266;72517;-25
2024/02/11 09:07:38;;;;;;;15.40;9.70;;;;;;;10.74;73.55;97576.88;105045;1267;74305;-25
2024/02/11 09:10:09;;;;;;;16.00;9.50;;;;;;;11.04;72.29;97576.50;104953;1267;72667;-26
2024/02/11 09:12:37;;;;;;;19.10;9.00;;;;;;;11.01;71.96;97576.05;104780;1267;61001;-25
2024/02/11 09:15:06;;;;;;;13.10;9.50;;;;;;;10.81;72.24;97578.17;104746;1265;61135;-25
2024/02/11 09:25:19;;;;;;;15.10;10.00;;;;;;;10.73;72.64;97585.59;102699;1292;600295;-24
2024/02/11 09:27:47;;;;;;;17.00;9.20;;;;;;;10.56;72.86;97588.16;104803;1266;62778;-24
2024/02/11 09:30:17;;;;;;;15.50;10.60;;;;;;;10.38;73.19;97589.12;104833;1266;61083;-24
2024/02/11 09:32:46;;;;;;;16.80;12.10;;;;;;;10.12;73.93;97581.98;104799;1266;72220;-25
2024/02/11 09:35:20;;;;;;;12.60;7.90;;;;;;;10.03;75.11;97581.21;108576;1264;73326;-25
2024/02/11 09:37:51;;;;;;;15.70;9.10;;;;;;;10.45;73.84;97580.25;108501;1263;225151;-26
2024/02/11 09:40:20;;;;;;;20.20;9.90;;;;;;;10.56;72.94;97580.09;108707;1262;59074;-26
2024/02/11 09:42:49;;;;;;;14.10;10.40;;;;;;;10.43;73.11;97580.07;108823;1261;60024;-26
2024/02/11 09:45:17;;;;;;;21.30;11.40;;;;;;;10.24;73.89;97579.08;108724;1261;71689;-25
2024/02/11 09:47:49;;;;;;;12.80;9.00;;;;;;;9.94;75.09;97574.94;108745;1262;73215;-26
2024/02/11 09:50:17;;;;;;;12.30;8.80;;;;;;;10.41;74.02;97574.52;108715;1263;72598;-26
2024/02/11 09:52:47;;;;;;;13.80;9.40;;;;;;;10.69;72.57;97576.86;108726;1262;60081;-26
2024/02/11 09:55:17;;;;;;;14.00;9.30;;;;;;;10.69;72.70;97572.34;108786;1261;60019;-26
2024/02/11 09:57:45;;;;;;;12.60;9.20;;;;;;;10.44;72.89;97569.09;108782;1263;73135;-25
2024/02/11 10:00:13;;;;;;;18.70;11.00;;;;;;;10.18;73.49;97569.77;108714;1263;73195;-26
2024/02/11 10:02:42;;;;;;;12.20;9.50;;;;;;;9.95;74.95;97568.63;108714;1263;72701;-26
2024/02/11 10:05:11;;;;;;;12.00;9.10;;;;;;;10.34;74.23;97564.03;108701;1263;58891;-26
2024/02/11 10:07:43;;;;;;;15.50;11.50;;;;;;;10.57;73.34;97562.29;108762;1263;58795;-26
2024/02/11 10:10:15;;;;;;;18.90;12.50;;;;;;;10.55;72.78;97558.92;108734;1263;73051;-26
2024/02/11 10:12:44;;;;;;;20.20;13.80;;;;;;;10.49;72.84;97563.51;108729;1263;74487;-26
2024/02/11 10:15:15;;;;;;;20.30;14.20;;;;;;;10.34;73.07;97560.73;108708;1263;71357;-26
2024/02/11 10:17:44;;;;;;;16.30;9.90;;;;;;;10.08;73.93;97562.42;108727;1268;60925;-26
2024/02/11 10:20:12;;;;;;;16.00;10.40;;;;;;;10.59;73.42;97563.16;108723;1263;58879;-26
2024/02/11 10:22:42;;;;;;;14.50;10.70;;;;;;;10.96;71.85;97564.47;108755;1263;71806;-26
2024/02/11 10:25:11;;;;;;;16.00;11.90;;;;;;;10.93;71.58;97565.16;108679;1263;75029;-26
2024/02/11 10:27:40;;;;;;;12.90;9.90;;;;;;;10.72;71.93;97568.70;108705;1263;74712;-26
2024/02/11 10:30:11;;;;;;;13.00;9.00;;;;;;;10.36;73.08;97564.16;108693;1266;60119;-26
2024/02/11 10:32:39;;;;;;;13.20;9.40;;;;;;;10.00;74.29;97556.36;109296;1253;60065;-26
2024/02/11 10:35:08;;;;;;;13.90;9.10;;;;;;;10.12;74.61;97566.95;109539;1253;75314;-26
2024/02/11 10:37:38;;;;;;;14.90;9.70;;;;;;;10.51;73.43;97573.70;109333;1253;73906;-26
2024/02/11 10:40:08;;;;;;;12.00;8.80;;;;;;;10.49;72.93;97564.89;109565;1252;73806;-26
2024/02/11 10:42:37;;;;;;;14.60;10.00;;;;;;;10.27;73.48;97566.65;109244;1253;58862;-26
2024/02/11 10:45:06;;;;;;;15.80;10.10;;;;;;;9.99;74.26;97562.30;109545;1253;59998;-26
2024/02/11 10:47:33;;;;;;;13.40;9.00;;;;;;;9.74;75.53;97562.99;109281;1255;74111;-26
2024/02/11 10:50:03;;;;;;;14.30;9.50;;;;;;;10.23;74.58;97560.23;109598;1253;74319;-26
2024/02/11 10:52:36;;;;;;;12.90;9.40;;;;;;;10.51;73.02;97556.69;109313;1253;72803;-26
2024/02/11 10:55:04;;;;;;;14.70;10.50;;;;;;;10.41;72.81;97555.98;109272;1253;60016;-26
2024/02/11 10:57:48;;;;;;;14.30;9.90;;;;;;;10.27;73.18;97554.86;109505;1253;60034;-26
2024/02/11 11:00:26;;;;;;;19.20;12.90;;;;;;;9.99;73.94;97556.33;109289;1253;73035;-26
2024/02/11 11:02:57;;;;;;;16.50;9.40;;;;;;;9.70;75.48;97560.75;109264;1253;74339;-26
2024/02/11 11:05:28;;;;;;;12.30;8.80;;;;;;;10.18;74.06;97559.58;109284;1253;72701;-26
2024/02/11 11:07:56;;;;;;;17.50;10.80;;;;;;;10.36;73.27;97558.56;109172;1254;60041;-26
2024/02/11 11:10:28;;;;;;;18.10;11.90;;;;;;;10.23;73.31;97553.41;109534;1253;58745;-26
2024/02/11 11:12:57;;;;;;;14.90;10.60;;;;;;;10.03;73.68;97552.25;109444;1254;71861;-26
2024/02/11 11:15:27;;;;;;;17.50;12.20;;;;;;;9.80;74.28;97545.94;109289;1253;73323;-26
2024/02/11 11:17:55;;;;;;;14.90;10.30;;;;;;;9.81;75.30;97536.09;109218;1253;72688;-26
2024/02/11 11:20:23;;;;;;;19.00;9.20;;;;;;;10.41;73.80;97533.14;109287;1254;62132;-26
2024/02/11 11:22:51;;;;;;;17.00;11.70;;;;;;;10.51;72.77;97536.04;109533;1253;60009;-26
2024/02/11 11:25:23;;;;;;;16.20;11.60;;;;;;;10.40;72.31;97532.68;109195;1255;71828;-26
2024/02/11 11:27:50;;;;;;;16.90;11.80;;;;;;;10.16;73.19;97529.23;109403;1254;73625;-26
2024/02/11 11:30:19;;;;;;;18.70;11.70;;;;;;;9.99;73.89;97528.69;109393;1253;73660;-26
2024/02/11 11:32:49;;;;;;;14.10;9.20;;;;;;;9.94;74.92;97529.20;109485;1253;64275;-26
2024/02/11 11:35:17;;;;;;;18.10;12.00;;;;;;;10.42;73.02;97523.45;109255;1254;60037;-26
2024/02/11 11:37:46;;;;;;;17.40;11.50;;;;;;;10.60;72.60;97527.11;109388;1253;75317;-26
2024/02/11 11:40:15;;;;;;;15.80;10.90;;;;;;;10.54;72.62;97532.28;109399;1253;73195;-26
2024/02/11 11:42:43;;;;;;;16.10;12.00;;;;;;;10.37;72.95;97530.70;109508;1256;72668;-26
2024/02/11 11:45:10;;;;;;;14.80;10.40;;;;;;;10.08;73.66;97527.48;109533;1253;59068;-26
2024/02/11 11:47:38;;;;;;;10.70;7.40;;;;;;;10.36;73.83;97533.72;109549;1252;60188;-26
2024/02/11 11:50:08;;;;;;;16.00;10.80;;;;;;;10.73;72.11;97526.23;109510;1254;71806;-26
2024/02/11 11:52:38;;;;;;;14.20;10.70;;;;;;;10.75;71.84;97529.20;109255;1252;74924;-27
2024/02/11 11:55:08;;;;;;;15.10;8.90;;;;;;;10.57;72.24;97529.55;109392;1254;75213;-26
2024/02/11 11:57:35;;;;;;;18.20;11.40;;;;;;;10.31;72.79;97520.56;109341;1254;58898;-26
2024/02/11 12:00:04;;;;;;;14.30;9.50;;;;;;;10.08;74.17;97517.07;109486;1252;60158;-26
2024/02/11 12:02:38;;;;;;;15.40;10.00;;;;;;;10.53;73.86;97512.95;109456;1253;73037;-26
2024/02/11 12:05:08;;;;;;;16.10;10.20;;;;;;;10.87;72.36;97511.58;109507;1253;74309;-27